sensor_id;sensor_type;location;lat;lon;timestamp;pressure;altitude;pressure_sealevel;temperature;humidity
53908;BME280;40469;47.998;7.794;2023-03-19T00:01:16;98716.63;;;13.78;71.45
53908;BME280;40469;47.998;7.794;2023-03-19T00:03:41;98717.09;;;13.61;73.67
53908;BME280;40469;47.998;7.794;2023-03-19T00:06:06;98715.06;;;13.71;73.87
53908;BME280;40469;47.998;7.794;2023-03-19T00:08:32;98729.13;;;13.68;74.16
53908;BME280;40469;47.998;7.794;2023-03-19T00:10:57;98724.00;;;13.63;74.59
53908;BME280;40469;47.998;7.794;2023-03-19T00:13:22;98721.59;;;13.56;76.36
53908;BME280;40469;47.998;7.794;2023-03-19T00:15:47;98726.13;;;13.49;77.95
53908;BME280;40469;47.998;7.794;2023-03-19T00:18:13;98731.28;;;13.52;78.35
53908;BME280;40469;47.998;7.794;2023-03-19T00:20:38;98739.19;;;13.51;78.33
53908;BME280;40469;47.998;7.794;2023-03-19T00:23:04;98737.94;;;13.31;81.55
53908;BME280;40469;47.998;7.794;2023-03-19T00:25:29;98736.91;;;13.37;82.12
53908;BME280;40469;47.998;7.794;2023-03-19T00:27:54;98744.84;;;13.34;83.10
53908;BME280;40469;47.998;7.794;2023-03-19T00:30:20;98740.00;;;13.17;85.24
53908;BME280;40469;47.998;7.794;2023-03-19T00:32:46;98755.81;;;13.14;84.93
53908;BME280;40469;47.998;7.794;2023-03-19T00:35:12;98755.59;;;13.21;85.35
53908;BME280;40469;47.998;7.794;2023-03-19T00:37:37;98766.97;;;13.22;87.01
53908;BME280;40469;47.998;7.794;2023-03-19T00:40:03;98764.50;;;13.14;90.04
53908;BME280;40469;47.998;7.794;2023-03-19T00:42:28;98761.13;;;13.09;94.02
53908;BME280;40469;47.998;7.794;2023-03-19T00:44:53;98774.38;;;13.04;97.91
53908;BME280;40469;47.998;7.794;2023-03-19T00:47:19;98771.50;;;12.76;100.00
53908;BME280;40469;47.998;7.794;2023-03-19T00:49:45;98774.50;;;12.58;100.00
53908;BME280;40469;47.998;7.794;2023-03-19T00:52:10;98793.06;;;12.45;100.00
53908;BME280;40469;47.998;7.794;2023-03-19T00:54:35;98784.56;;;12.36;100.00
53908;BME280;40469;47.998;7.794;2023-03-19T00:57:01;98787.50;;;12.19;100.00
53908;BME280;40469;47.998;7.794;2023-03-19T00:59:26;98781.50;;;12.12;100.00
53908;BME280;40469;47.998;7.794;2023-03-19T01:01:51;98783.34;;;12.07;100.00
53908;BME280;40469;47.998;7.794;2023-03-19T01:04:17;98770.56;;;11.91;100.00
53908;BME280;40469;47.998;7.794;2023-03-19T01:06:43;98772.50;;;11.79;100.00
53908;BME280;40469;47.998;7.794;2023-03-19T01:09:08;98768.47;;;11.59;100.00
53908;BME280;40469;47.998;7.794;2023-03-19T01:11:34;98776.72;;;11.34;100.00
53908;BME280;40469;47.998;7.794;2023-03-19T01:13:59;98771.81;;;11.14;100.00
53908;BME280;40469;47.998;7.794;2023-03-19T01:16:24;98767.53;;;11.12;100.00
53908;BME280;40469;47.998;7.794;2023-03-19T01:18:49;98772.03;;;10.99;100.00
53908;BME280;40469;47.998;7.794;2023-03-19T01:21:15;98763.38;;;10.97;100.00
53908;BME280;40469;47.998;7.794;2023-03-19T01:23:41;98772.19;;;10.88;100.00
53908;BME280;40469;47.998;7.794;2023-03-19T01:26:06;98762.84;;;10.73;100.00
53908;BME280;40469;47.998;7.794;2023-03-19T01:28:32;98770.00;;;10.59;100.00
53908;BME280;40469;47.998;7.794;2023-03-19T01:30:58;98771.69;;;10.63;100.00
53908;BME280;40469;47.998;7.794;2023-03-19T01:33:24;98767.94;;;10.81;100.00
53908;BME280;40469;47.998;7.794;2023-03-19T01:35:50;98765.19;;;10.92;100.00
53908;BME280;40469;47.998;7.794;2023-03-19T01:38:15;98769.50;;;10.96;100.00
53908;BME280;40469;47.998;7.794;2023-03-19T01:40:45;98765.94;;;11.00;100.00
53908;BME280;40469;47.998;7.794;2023-03-19T01:43:21;98758.06;;;11.03;100.00
53908;BME280;40469;47.998;7.794;2023-03-19T01:45:48;98763.19;;;11.09;100.00
53908;BME280;40469;47.998;7.794;2023-03-19T01:48:25;98762.13;;;11.23;100.00
53908;BME280;40469;47.998;7.794;2023-03-19T01:50:51;98757.72;;;11.25;100.00
53908;BME280;40469;47.998;7.794;2023-03-19T01:53:19;98754.78;;;11.45;100.00
53908;BME280;40469;47.998;7.794;2023-03-19T01:55:45;98757.44;;;11.42;100.00
53908;BME280;40469;47.998;7.794;2023-03-19T01:58:11;98752.16;;;11.46;100.00
53908;BME280;40469;47.998;7.794;2023-03-19T02:00:36;98746.97;;;11.42;100.00
53908;BME280;40469;47.998;7.794;2023-03-19T02:03:03;98749.47;;;11.51;100.00
53908;BME280;40469;47.998;7.794;2023-03-19T02:05:29;98749.06;;;11.74;100.00
53908;BME280;40469;47.998;7.794;2023-03-19T02:07:58;98746.25;;;11.83;100.00
53908;BME280;40469;47.998;7.794;2023-03-19T02:10:26;98741.06;;;11.82;100.00
53908;BME280;40469;47.998;7.794;2023-03-19T02:12:52;98732.47;;;11.73;100.00
53908;BME280;40469;47.998;7.794;2023-03-19T02:15:17;98726.09;;;11.90;100.00
53908;BME280;40469;47.998;7.794;2023-03-19T02:17:43;98737.53;;;11.84;100.00
53908;BME280;40469;47.998;7.794;2023-03-19T02:22:35;98732.84;;;12.02;100.00
53908;BME280;40469;47.998;7.794;2023-03-19T02:25:05;98731.31;;;11.90;100.00
53908;BME280;40469;47.998;7.794;2023-03-19T02:27:31;98728.50;;;12.02;100.00
53908;BME280;40469;47.998;7.794;2023-03-19T02:29:56;98730.78;;;12.19;100.00
53908;BME280;40469;47.998;7.794;2023-03-19T02:32:22;98727.19;;;12.25;100.00
53908;BME280;40469;47.998;7.794;2023-03-19T02:34:47;98735.22;;;12.14;100.00
53908;BME280;40469;47.998;7.794;2023-03-19T02:37:16;98734.31;;;12.18;100.00
53908;BME280;40469;47.998;7.794;2023-03-19T02:39:51;98737.72;;;12.22;100.00
53908;BME280;40469;47.998;7.794;2023-03-19T02:42:18;98744.75;;;12.20;100.00
53908;BME280;40469;47.998;7.794;2023-03-19T02:44:45;98740.47;;;12.14;100.00
53908;BME280;40469;47.998;7.794;2023-03-19T02:47:11;98735.22;;;12.14;100.00
53908;BME280;40469;47.998;7.794;2023-03-19T02:49:37;98735.41;;;12.06;100.00
53908;BME280;40469;47.998;7.794;2023-03-19T02:52:02;98741.25;;;12.18;100.00
53908;BME280;40469;47.998;7.794;2023-03-19T02:54:27;98734.34;;;12.15;100.00
53908;BME280;40469;47.998;7.794;2023-03-19T02:56:52;98741.41;;;12.11;100.00
53908;BME280;40469;47.998;7.794;2023-03-19T02:59:18;98740.34;;;12.22;100.00
53908;BME280;40469;47.998;7.794;2023-03-19T03:01:43;98744.78;;;12.18;100.00
53908;BME280;40469;47.998;7.794;2023-03-19T03:04:08;98738.59;;;12.21;100.00
53908;BME280;40469;47.998;7.794;2023-03-19T03:06:34;98740.34;;;12.22;100.00
53908;BME280;40469;47.998;7.794;2023-03-19T03:09:00;98748.25;;;12.19;100.00
53908;BME280;40469;47.998;7.794;2023-03-19T03:11:25;98743.78;;;12.24;100.00
53908;BME280;40469;47.998;7.794;2023-03-19T03:13:51;98745.59;;;12.20;100.00
53908;BME280;40469;47.998;7.794;2023-03-19T03:16:16;98741.13;;;12.25;100.00
53908;BME280;40469;47.998;7.794;2023-03-19T03:18:41;98744.78;;;12.17;100.00
53908;BME280;40469;47.998;7.794;2023-03-19T03:21:06;98744.72;;;12.21;100.00
53908;BME280;40469;47.998;7.794;2023-03-19T03:23:32;98743.81;;;12.21;100.00
53908;BME280;40469;47.998;7.794;2023-03-19T03:25:57;98754.47;;;12.13;100.00
53908;BME280;40469;47.998;7.794;2023-03-19T03:28:22;98759.88;;;12.04;100.00
53908;BME280;40469;47.998;7.794;2023-03-19T03:30:48;98754.66;;;12.04;100.00
53908;BME280;40469;47.998;7.794;2023-03-19T03:33:13;98751.25;;;11.99;100.00
53908;BME280;40469;47.998;7.794;2023-03-19T03:35:39;98750.75;;;11.75;100.00
53908;BME280;40469;47.998;7.794;2023-03-19T03:38:05;98756.22;;;11.63;100.00
53908;BME280;40469;47.998;7.794;2023-03-19T03:40:30;98760.78;;;11.51;100.00
53908;BME280;40469;47.998;7.794;2023-03-19T03:42:57;98766.22;;;11.39;100.00
53908;BME280;40469;47.998;7.794;2023-03-19T03:45:22;98762.00;;;11.30;100.00
53908;BME280;40469;47.998;7.794;2023-03-19T03:47:48;98767.25;;;11.29;100.00
53908;BME280;40469;47.998;7.794;2023-03-19T03:50:13;98773.38;;;11.26;100.00
53908;BME280;40469;47.998;7.794;2023-03-19T03:52:39;98773.38;;;11.26;100.00
53908;BME280;40469;47.998;7.794;2023-03-19T03:55:05;98776.00;;;11.26;100.00
53908;BME280;40469;47.998;7.794;2023-03-19T03:57:30;98782.94;;;11.27;100.00
53908;BME280;40469;47.998;7.794;2023-03-19T03:59:55;98773.28;;;11.31;100.00
53908;BME280;40469;47.998;7.794;2023-03-19T04:02:21;98782.75;;;11.38;100.00
53908;BME280;40469;47.998;7.794;2023-03-19T04:04:46;98787.88;;;11.47;100.00
53908;BME280;40469;47.998;7.794;2023-03-19T04:07:12;98787.84;;;11.49;100.00
53908;BME280;40469;47.998;7.794;2023-03-19T04:09:38;98789.28;;;11.67;100.00
53908;BME280;40469;47.998;7.794;2023-03-19T04:12:03;98793.53;;;11.74;100.00
53908;BME280;40469;47.998;7.794;2023-03-19T04:14:28;98794.38;;;11.74;100.00
53908;BME280;40469;47.998;7.794;2023-03-19T04:16:54;98790.91;;;11.74;100.00
53908;BME280;40469;47.998;7.794;2023-03-19T04:19:19;98792.63;;;11.75;100.00
53908;BME280;40469;47.998;7.794;2023-03-19T04:21:45;98795.91;;;11.86;100.00
53908;BME280;40469;47.998;7.794;2023-03-19T04:24:10;98796.91;;;11.79;100.00
53908;BME280;40469;47.998;7.794;2023-03-19T04:26:36;98792.56;;;11.78;100.00
53908;BME280;40469;47.998;7.794;2023-03-19T04:29:01;98791.69;;;11.79;100.00
53908;BME280;40469;47.998;7.794;2023-03-19T04:31:27;98796.91;;;11.81;100.00
53908;BME280;40469;47.998;7.794;2023-03-19T04:33:52;98802.19;;;11.76;100.00
53908;BME280;40469;47.998;7.794;2023-03-19T04:36:18;98794.94;;;11.93;100.00
53908;BME280;40469;47.998;7.794;2023-03-19T04:38:43;98793.25;;;11.91;100.00
53908;BME280;40469;47.998;7.794;2023-03-19T04:41:08;98793.00;;;12.03;100.00
53908;BME280;40469;47.998;7.794;2023-03-19T04:43:34;98791.31;;;12.02;100.00
53908;BME280;40469;47.998;7.794;2023-03-19T04:46:00;98793.91;;;12.04;100.00
53908;BME280;40469;47.998;7.794;2023-03-19T04:48:25;98799.16;;;12.02;100.00
53908;BME280;40469;47.998;7.794;2023-03-19T04:50:51;98793.91;;;12.04;100.00
53908;BME280;40469;47.998;7.794;2023-03-19T04:53:17;98793.19;;;11.94;100.00
53908;BME280;40469;47.998;7.794;2023-03-19T04:55:44;98792.38;;;11.90;100.00
53908;BME280;40469;47.998;7.794;2023-03-19T04:58:09;98795.13;;;11.81;100.00
53908;BME280;40469;47.998;7.794;2023-03-19T05:00:35;98795.13;;;11.81;100.00
53908;BME280;40469;47.998;7.794;2023-03-19T05:03:00;98795.19;;;11.78;100.00
53908;BME280;40469;47.998;7.794;2023-03-19T05:05:26;98800.47;;;11.75;100.00
53908;BME280;40469;47.998;7.794;2023-03-19T05:07:51;98802.25;;;11.73;100.00
53908;BME280;40469;47.998;7.794;2023-03-19T05:10:16;98799.75;;;11.67;100.00
53908;BME280;40469;47.998;7.794;2023-03-19T05:12:41;98798.84;;;11.68;100.00
53908;BME280;40469;47.998;7.794;2023-03-19T05:15:07;98806.00;;;11.58;100.00
53908;BME280;40469;47.998;7.794;2023-03-19T05:17:32;98812.25;;;11.48;100.00
53908;BME280;40469;47.998;7.794;2023-03-19T05:19:59;98814.38;;;11.23;100.00
53908;BME280;40469;47.998;7.794;2023-03-19T05:22:25;98814.50;;;11.13;100.00
53908;BME280;40469;47.998;7.794;2023-03-19T05:24:51;98814.66;;;11.03;100.00
53908;BME280;40469;47.998;7.794;2023-03-19T05:27:16;98819.06;;;10.99;100.00
53908;BME280;40469;47.998;7.794;2023-03-19T05:29:41;98816.44;;;10.99;100.00
53908;BME280;40469;47.998;7.794;2023-03-19T05:32:08;98819.13;;;10.96;100.00
53908;BME280;40469;47.998;7.794;2023-03-19T05:34:34;98822.84;;;10.76;100.00
53908;BME280;40469;47.998;7.794;2023-03-19T05:37:00;98814.41;;;10.57;100.00
53908;BME280;40469;47.998;7.794;2023-03-19T05:39:25;98815.25;;;10.56;100.00
53908;BME280;40469;47.998;7.794;2023-03-19T05:41:50;98821.56;;;10.40;100.00
53908;BME280;40469;47.998;7.794;2023-03-19T05:44:16;98821.50;;;10.44;100.00
53908;BME280;40469;47.998;7.794;2023-03-19T05:46:41;98820.63;;;10.44;100.00
53908;BME280;40469;47.998;7.794;2023-03-19T05:49:07;98824.97;;;10.47;100.00
53908;BME280;40469;47.998;7.794;2023-03-19T05:51:33;98819.78;;;10.42;100.00
53908;BME280;40469;47.998;7.794;2023-03-19T05:53:58;98826.84;;;10.31;100.00
53908;BME280;40469;47.998;7.794;2023-03-19T05:56:23;98825.97;;;10.29;100.00
53908;BME280;40469;47.998;7.794;2023-03-19T05:58:49;98832.97;;;10.31;100.00
53908;BME280;40469;47.998;7.794;2023-03-19T06:01:15;98828.59;;;10.32;100.00
53908;BME280;40469;47.998;7.794;2023-03-19T06:03:40;98827.88;;;10.14;100.00
53908;BME280;40469;47.998;7.794;2023-03-19T06:06:06;98833.31;;;9.94;100.00
53908;BME280;40469;47.998;7.794;2023-03-19T06:08:31;98835.19;;;9.78;100.00
53908;BME280;40469;47.998;7.794;2023-03-19T06:10:57;98833.38;;;9.86;100.00
53908;BME280;40469;47.998;7.794;2023-03-19T06:13:22;98841.22;;;9.86;100.00
53908;BME280;40469;47.998;7.794;2023-03-19T06:15:47;98840.31;;;9.86;100.00
53908;BME280;40469;47.998;7.794;2023-03-19T06:18:13;98839.47;;;9.82;100.00
53908;BME280;40469;47.998;7.794;2023-03-19T06:20:39;98843.81;;;9.86;100.00
53908;BME280;40469;47.998;7.794;2023-03-19T06:23:04;98842.00;;;9.92;100.00
53908;BME280;40469;47.998;7.794;2023-03-19T06:25:29;98842.78;;;10.01;100.00
53908;BME280;40469;47.998;7.794;2023-03-19T06:27:54;98844.56;;;9.99;100.00
53908;BME280;40469;47.998;7.794;2023-03-19T06:30:20;98854.91;;;10.09;100.00
53908;BME280;40469;47.998;7.794;2023-03-19T06:32:45;98854.81;;;10.18;100.00
53908;BME280;40469;47.998;7.794;2023-03-19T06:35:11;98857.38;;;10.21;100.00
53908;BME280;40469;47.998;7.794;2023-03-19T06:37:36;98861.75;;;10.19;100.00
53908;BME280;40469;47.998;7.794;2023-03-19T06:40:02;98861.81;;;10.13;100.00
53908;BME280;40469;47.998;7.794;2023-03-19T06:42:29;98857.50;;;10.09;100.00
53908;BME280;40469;47.998;7.794;2023-03-19T06:44:54;98862.81;;;9.99;100.00
53908;BME280;40469;47.998;7.794;2023-03-19T06:47:19;98851.47;;;10.02;100.00
53908;BME280;40469;47.998;7.794;2023-03-19T06:49:45;98858.38;;;10.07;100.00
53908;BME280;40469;47.998;7.794;2023-03-19T06:52:10;98854.66;;;10.38;100.00
53908;BME280;40469;47.998;7.794;2023-03-19T06:54:35;98858.50;;;10.79;100.00
53908;BME280;40469;47.998;7.794;2023-03-19T06:57:01;98861.81;;;10.93;100.00
53908;BME280;40469;47.998;7.794;2023-03-19T06:59:26;98860.72;;;11.10;100.00
53908;BME280;40469;47.998;7.794;2023-03-19T07:01:51;98865.88;;;11.14;100.00
53908;BME280;40469;47.998;7.794;2023-03-19T07:04:16;98865.69;;;11.28;100.00
53908;BME280;40469;47.998;7.794;2023-03-19T07:06:42;98870.56;;;11.54;100.00
53908;BME280;40469;47.998;7.794;2023-03-19T07:09:07;98866.13;;;11.58;100.00
53908;BME280;40469;47.998;7.794;2023-03-19T07:11:32;98867.63;;;11.73;100.00
53908;BME280;40469;47.998;7.794;2023-03-19T07:13:58;98868.38;;;11.83;100.00
53908;BME280;40469;47.998;7.794;2023-03-19T07:16:23;98859.38;;;12.01;100.00
53908;BME280;40469;47.998;7.794;2023-03-19T07:18:48;98869.56;;;12.16;100.00
53908;BME280;40469;47.998;7.794;2023-03-19T07:21:13;98868.66;;;12.17;100.00
53908;BME280;40469;47.998;7.794;2023-03-19T07:23:38;98875.41;;;12.32;100.00
53908;BME280;40469;47.998;7.794;2023-03-19T07:26:05;98870.88;;;12.39;100.00
53908;BME280;40469;47.998;7.794;2023-03-19T07:28:30;98870.84;;;12.40;100.00
53908;BME280;40469;47.998;7.794;2023-03-19T07:30:55;98874.97;;;12.54;100.00
53908;BME280;40469;47.998;7.794;2023-03-19T07:33:21;98873.34;;;12.48;100.00
53908;BME280;40469;47.998;7.794;2023-03-19T07:35:46;98870.66;;;12.51;100.00
53908;BME280;40469;47.998;7.794;2023-03-19T07:38:11;98881.03;;;12.57;100.00
53908;BME280;40469;47.998;7.794;2023-03-19T07:40:37;98874.16;;;12.51;100.00
53908;BME280;40469;47.998;7.794;2023-03-19T07:43:02;98883.72;;;12.52;100.00
53908;BME280;40469;47.998;7.794;2023-03-19T07:45:28;98888.94;;;12.52;100.00
53908;BME280;40469;47.998;7.794;2023-03-19T07:47:53;98899.53;;;12.48;100.00
53908;BME280;40469;47.998;7.794;2023-03-19T07:50:18;98900.44;;;12.45;100.00
53908;BME280;40469;47.998;7.794;2023-03-19T07:52:44;98899.56;;;12.46;100.00
53908;BME280;40469;47.998;7.794;2023-03-19T07:55:10;98902.97;;;12.51;100.00
53908;BME280;40469;47.998;7.794;2023-03-19T07:57:35;98899.44;;;12.52;100.00
53908;BME280;40469;47.998;7.794;2023-03-19T08:00:00;98896.84;;;12.51;100.00
53908;BME280;40469;47.998;7.794;2023-03-19T08:02:26;98896.75;;;12.56;100.00
53908;BME280;40469;47.998;7.794;2023-03-19T08:04:51;98897.56;;;12.59;100.00
53908;BME280;40469;47.998;7.794;2023-03-19T08:07:16;98900.13;;;12.62;100.00
53908;BME280;40469;47.998;7.794;2023-03-19T08:09:41;98892.16;;;12.67;100.00
53908;BME280;40469;47.998;7.794;2023-03-19T08:12:07;98898.97;;;12.76;100.00
53908;BME280;40469;47.998;7.794;2023-03-19T08:14:33;98896.88;;;12.95;100.00
53908;BME280;40469;47.998;7.794;2023-03-19T08:16:58;98896.63;;;13.05;100.00
53908;BME280;40469;47.998;7.794;2023-03-19T08:19:24;98897.88;;;13.30;100.00
53908;BME280;40469;47.998;7.794;2023-03-19T08:21:49;98893.75;;;13.18;100.00
53908;BME280;40469;47.998;7.794;2023-03-19T08:24:15;98896.69;;;13.44;100.00
53908;BME280;40469;47.998;7.794;2023-03-19T08:26:41;98902.91;;;13.40;100.00
53908;BME280;40469;47.998;7.794;2023-03-19T08:29:06;98897.44;;;13.51;100.00
53908;BME280;40469;47.998;7.794;2023-03-19T08:31:32;98900.78;;;13.58;100.00
53908;BME280;40469;47.998;7.794;2023-03-19T08:33:57;98893.22;;;13.44;100.00
53908;BME280;40469;47.998;7.794;2023-03-19T08:36:26;98901.88;;;13.48;100.00
53908;BME280;40469;47.998;7.794;2023-03-19T08:38:51;98898.56;;;13.39;100.00
53908;BME280;40469;47.998;7.794;2023-03-19T08:41:19;98903.41;;;13.58;100.00
53908;BME280;40469;47.998;7.794;2023-03-19T08:43:44;98894.75;;;13.54;100.00
53908;BME280;40469;47.998;7.794;2023-03-19T08:46:09;98898.06;;;13.62;100.00
53908;BME280;40469;47.998;7.794;2023-03-19T08:48:35;98898.06;;;13.62;100.00
53908;BME280;40469;47.998;7.794;2023-03-19T08:51:00;98909.78;;;13.83;100.00
53908;BME280;40469;47.998;7.794;2023-03-19T08:53:29;98899.28;;;13.83;100.00
53908;BME280;40469;47.998;7.794;2023-03-19T08:56:02;98900.50;;;13.70;100.00
53908;BME280;40469;47.998;7.794;2023-03-19T08:58:28;98900.72;;;13.61;100.00
53908;BME280;40469;47.998;7.794;2023-03-19T09:00:59;98897.97;;;13.65;100.00
53908;BME280;40469;47.998;7.794;2023-03-19T09:03:25;98905.00;;;13.63;100.00
53908;BME280;40469;47.998;7.794;2023-03-19T09:05:51;98910.16;;;13.68;100.00
53908;BME280;40469;47.998;7.794;2023-03-19T09:08:16;98908.22;;;13.76;100.00
53908;BME280;40469;47.998;7.794;2023-03-19T09:12:34;98912.81;;;13.67;100.00
53908;BME280;40469;47.998;7.794;2023-03-19T09:14:59;98919.53;;;13.39;100.00
53908;BME280;40469;47.998;7.794;2023-03-19T09:17:24;98922.78;;;13.52;100.00
53908;BME280;40469;47.998;7.794;2023-03-19T09:19:50;98936.47;;;13.65;100.00
53908;BME280;40469;47.998;7.794;2023-03-19T09:22:15;98927.84;;;13.60;100.00
53908;BME280;40469;47.998;7.794;2023-03-19T09:24:40;98926.16;;;13.57;100.00
53908;BME280;40469;47.998;7.794;2023-03-19T09:27:05;98927.31;;;13.44;100.00
53908;BME280;40469;47.998;7.794;2023-03-19T09:29:31;98930.09;;;13.38;100.00
53908;BME280;40469;47.998;7.794;2023-03-19T09:31:56;98925.84;;;13.31;100.00
53908;BME280;40469;47.998;7.794;2023-03-19T09:34:21;98934.28;;;13.46;100.00
53908;BME280;40469;47.998;7.794;2023-03-19T09:36:47;98933.56;;;13.38;100.00
53908;BME280;40469;47.998;7.794;2023-03-19T09:39:12;98930.53;;;13.57;100.00
53908;BME280;40469;47.998;7.794;2023-03-19T09:41:59;98936.09;;;13.43;100.00
53908;BME280;40469;47.998;7.794;2023-03-19T09:44:46;98935.91;;;13.51;100.00
53908;BME280;40469;47.998;7.794;2023-03-19T09:50:05;98938.59;;;13.48;100.00
53908;BME280;40469;47.998;7.794;2023-03-19T09:55:10;98930.41;;;13.63;100.00
53908;BME280;40469;47.998;7.794;2023-03-19T09:57:38;98925.19;;;13.61;100.00
53908;BME280;40469;47.998;7.794;2023-03-19T10:03:19;98940.16;;;13.94;100.00
53908;BME280;40469;47.998;7.794;2023-03-19T10:16:21;98942.41;;;13.73;100.00
53908;BME280;40469;47.998;7.794;2023-03-19T10:18:48;98944.28;;;13.68;100.00
53908;BME280;40469;47.998;7.794;2023-03-19T10:21:19;98950.72;;;13.53;100.00
53908;BME280;40469;47.998;7.794;2023-03-19T10:26:18;98954.16;;;13.55;100.00
53908;BME280;40469;47.998;7.794;2023-03-19T10:28:45;98953.06;;;13.23;100.00
53908;BME280;40469;47.998;7.794;2023-03-19T10:31:23;98959.75;;;13.40;100.00
53908;BME280;40469;47.998;7.794;2023-03-19T10:33:51;98957.88;;;13.46;100.00
53908;BME280;40469;47.998;7.794;2023-03-19T10:36:20;98957.88;;;13.86;100.00
53908;BME280;40469;47.998;7.794;2023-03-19T10:38:50;98957.25;;;14.12;100.00
53908;BME280;40469;47.998;7.794;2023-03-19T10:41:20;98941.13;;;14.26;100.00
53908;BME280;40469;47.998;7.794;2023-03-19T10:43:50;98946.75;;;14.46;100.00
53908;BME280;40469;47.998;7.794;2023-03-19T10:46:16;98944.69;;;14.25;100.00
53908;BME280;40469;47.998;7.794;2023-03-19T10:48:42;98944.31;;;14.40;100.00
53908;BME280;40469;47.998;7.794;2023-03-19T10:51:09;98942.25;;;14.51;100.00
53908;BME280;40469;47.998;7.794;2023-03-19T10:53:38;98942.25;;;14.51;100.00
53908;BME280;40469;47.998;7.794;2023-03-19T10:58:30;98949.75;;;14.98;100.00
53908;BME280;40469;47.998;7.794;2023-03-19T11:01:04;98931.38;;;14.67;100.00
53908;BME280;40469;47.998;7.794;2023-03-19T11:03:33;98944.50;;;14.31;100.00
53908;BME280;40469;47.998;7.794;2023-03-19T11:08:28;98945.72;;;14.52;100.00
53908;BME280;40469;47.998;7.794;2023-03-19T11:10:53;98931.78;;;14.15;100.00
53908;BME280;40469;47.998;7.794;2023-03-19T11:13:21;98932.19;;;14.33;100.00
53908;BME280;40469;47.998;7.794;2023-03-19T11:15:47;98927.97;;;14.63;100.00
53908;BME280;40469;47.998;7.794;2023-03-19T11:21:19;98926.00;;;14.70;100.00
53908;BME280;40469;47.998;7.794;2023-03-19T11:23:45;98925.00;;;14.75;100.00
53908;BME280;40469;47.998;7.794;2023-03-19T11:26:17;98925.53;;;14.54;100.00
53908;BME280;40469;47.998;7.794;2023-03-19T11:28:43;98928.09;;;14.90;100.00
53908;BME280;40469;47.998;7.794;2023-03-19T11:31:17;98920.44;;;14.48;100.00
53908;BME280;40469;47.998;7.794;2023-03-19T11:36:30;98927.31;;;14.53;100.00
53908;BME280;40469;47.998;7.794;2023-03-19T11:39:02;98922.25;;;14.46;100.00
53908;BME280;40469;47.998;7.794;2023-03-19T11:41:39;98924.91;;;14.78;100.00
53908;BME280;40469;47.998;7.794;2023-03-19T11:44:10;98918.81;;;14.76;100.00
53908;BME280;40469;47.998;7.794;2023-03-19T11:52:07;98916.22;;;14.42;100.00
53908;BME280;40469;47.998;7.794;2023-03-19T11:57:31;98910.31;;;14.68;100.00
53908;BME280;40469;47.998;7.794;2023-03-19T12:02:31;98908.72;;;14.61;100.00
53908;BME280;40469;47.998;7.794;2023-03-19T12:12:51;98902.91;;;14.48;100.00
53908;BME280;40469;47.998;7.794;2023-03-19T12:15:27;98902.53;;;14.64;100.00
53908;BME280;40469;47.998;7.794;2023-03-19T12:18:20;98901.94;;;14.85;100.00
53908;BME280;40469;47.998;7.794;2023-03-19T12:20:44;98901.34;;;14.75;100.00
53908;BME280;40469;47.998;7.794;2023-03-19T12:25:44;98903.72;;;14.50;100.00
53908;BME280;40469;47.998;7.794;2023-03-19T12:30:43;98895.88;;;14.16;100.00
53908;BME280;40469;47.998;7.794;2023-03-19T12:35:36;98903.41;;;14.30;100.00
53908;BME280;40469;47.998;7.794;2023-03-19T12:38:12;98902.16;;;14.43;100.00
53908;BME280;40469;47.998;7.794;2023-03-19T12:40:42;98899.09;;;14.27;100.00
53908;BME280;40469;47.998;7.794;2023-03-19T12:43:31;98911.38;;;14.27;100.00
53908;BME280;40469;47.998;7.794;2023-03-19T12:45:56;98900.84;;;14.27;100.00
53908;BME280;40469;47.998;7.794;2023-03-19T12:48:26;98903.78;;;14.14;100.00
53908;BME280;40469;47.998;7.794;2023-03-19T12:50:53;98907.50;;;14.06;100.00
53908;BME280;40469;47.998;7.794;2023-03-19T12:53:28;98902.22;;;14.07;100.00
53908;BME280;40469;47.998;7.794;2023-03-19T12:55:56;98914.31;;;13.78;100.00
53908;BME280;40469;47.998;7.794;2023-03-19T13:01:09;98910.03;;;13.73;100.00
53908;BME280;40469;47.998;7.794;2023-03-19T13:06:05;98901.81;;;13.88;100.00
53908;BME280;40469;47.998;7.794;2023-03-19T13:08:40;98908.09;;;13.81;100.00
53908;BME280;40469;47.998;7.794;2023-03-19T13:11:31;98893.47;;;13.71;100.00
53908;BME280;40469;47.998;7.794;2023-03-19T13:14:00;98897.69;;;13.78;100.00
53908;BME280;40469;47.998;7.794;2023-03-19T13:21:51;98896.44;;;13.94;100.00
53908;BME280;40469;47.998;7.794;2023-03-19T13:24:27;98896.25;;;14.00;100.00
53908;BME280;40469;47.998;7.794;2023-03-19T13:26:53;98893.91;;;14.24;100.00
53908;BME280;40469;47.998;7.794;2023-03-19T13:31:44;98891.56;;;14.13;100.00
53908;BME280;40469;47.998;7.794;2023-03-19T13:36:42;98884.72;;;14.08;100.00
53908;BME280;40469;47.998;7.794;2023-03-19T13:39:12;98883.38;;;14.26;100.00
53908;BME280;40469;47.998;7.794;2023-03-19T13:46:50;98889.59;;;13.87;100.00
53908;BME280;40469;47.998;7.794;2023-03-19T13:51:49;98892.03;;;13.59;100.00
53908;BME280;40469;47.998;7.794;2023-03-19T13:54:16;98894.50;;;13.24;100.00
53908;BME280;40469;47.998;7.794;2023-03-19T14:01:54;98886.59;;;12.84;100.00
53908;BME280;40469;47.998;7.794;2023-03-19T14:04:26;98881.09;;;12.98;100.00
53908;BME280;40469;47.998;7.794;2023-03-19T14:09:38;98881.63;;;13.54;100.00
53908;BME280;40469;47.998;7.794;2023-03-19T14:17:18;98882.59;;;13.50;100.00
53908;BME280;40469;47.998;7.794;2023-03-19T14:19:44;98876.91;;;13.69;100.00
53908;BME280;40469;47.998;7.794;2023-03-19T14:24:40;98876.28;;;13.59;100.00
53908;BME280;40469;47.998;7.794;2023-03-19T14:27:20;98867.44;;;13.63;100.00
53908;BME280;40469;47.998;7.794;2023-03-19T14:29:46;98877.31;;;13.52;100.00